Time;durP1;ratioP1;P1;durP2;ratioP2;P2;SDS_P1;SDS_P2;PMS_P1;PMS_P2;Temp;Humidity;BMP_temperature;BMP_pressure;BME280_temperature;BME280_humidity;BME280_pressure;Samples;Min_cycle;Max_cycle;Signal;HPM_P1;HPM_P2
2022/11/05 00:09:28;;;;;;;;;;;;;;;;;;354400;27;1281;-65
2022/11/05 00:09:28;;;;;;;;;;;;;;;;;;352264;27;1051;-65
2022/11/05 00:09:39;;;;;;;;;;;;;;;;;;354383;27;1035;-65
2022/11/05 00:09:49;;;;;;;;;;;;;;;;;;354355;27;976;-65
2022/11/05 00:10:07;;;;;;;;;;;;;;;;;;354361;27;880;-65
2022/11/05 00:10:27;;;;;;;;;;;;;;;;;;354341;27;999;-65
2022/11/05 00:10:38;;;;;;;;;;;;;;;;;;354375;27;928;-65
2022/11/05 00:10:48;;;;;;;;;;;;;;;;;;354382;27;899;-65
2022/11/05 00:10:59;;;;;;;;;;;;;;;;;;354408;27;840;-65
2022/11/05 00:11:10;;;;;;;;;;;;;;;;;;354388;27;1003;-65
2022/11/05 00:16:42;;;;;;;;;;;;;;;;;;354339;27;932;-65
2022/11/05 00:16:45;;;;;;;;;;;;;;;;;;354298;27;968;-65
2022/11/05 00:16:55;;;;;;;;;;;;;;;;;;354456;27;1490;-65
2022/11/05 00:17:05;;;;;;;;;;;;;;;;;;354365;27;1012;-65
2022/11/05 00:17:15;;;;;;;;;;;;;;;;;;354380;27;1123;-65
2022/11/05 00:17:26;;;;;;;;;;;;;;;;;;354358;27;999;-65
2022/11/05 00:17:36;;;;;;;;;;;;;;;;;;354358;27;980;-65
2022/11/05 00:17:46;;;;;;;;;;;;;;;;;;354417;27;912;-65
2022/11/05 00:17:56;;;;;;;;;;;;;;;;;;354403;27;978;-65
2022/11/05 00:18:07;;;;;;;;;;;;;;;;;;354453;27;809;-65
2022/11/05 00:18:17;;;;;;;;;;;;;;;;;;354322;27;794;-65
2022/11/05 00:18:27;;;;;;;;;;;;;;;;;;354391;27;936;-65
2022/11/05 00:18:37;;;;;;;;;;;;;;;;;;354361;27;939;-65
2022/11/05 00:19:05;;;;;;;;;;;;;;;;;;354395;27;822;-65
2022/11/05 00:19:15;;;;;;;;;;;;;;;;;;354347;27;912;-65
2022/11/05 00:19:25;;;;;;;;;;;;;;;;;;354441;27;940;-65
2022/11/05 00:19:35;;;;;;;;;;;;;;;;;;354854;27;1252;-65
2022/11/05 00:19:46;;;;;;;;;;;;;;;;;;355737;27;1032;-65
2022/11/05 00:19:56;;;;;;;;;;;;;;;;;;355847;27;912;-65
2022/11/05 00:20:08;;;;;;;;;;;;;;;;;;355799;27;980;-65
2022/11/05 00:20:18;;;;;;;;;;;;;;;;;;355792;27;983;-65
2022/11/05 00:20:28;;;;;;;;;;;;;;;;;;355784;27;908;-65
2022/11/05 00:20:38;;;;;;;;;;;;;;;;;;355812;27;915;-65
2022/11/05 00:20:48;;;;;;;;;;;;;;;;;;355784;27;991;-65
2022/11/05 00:20:58;;;;;;;;;;;;;;;;;;355753;27;916;-65
2022/11/05 00:25:12;;;;;;;;;;;;;;;;;;355790;27;928;-65
2022/11/05 00:25:18;;;;;;;;;;;;;;;;;;354420;27;797;-65
2022/11/05 00:25:29;;;;;;;;;;;;;;;;;;354295;27;973;-65
2022/11/05 00:25:39;;;;;;;;;;;;;;;;;;354424;27;848;-65
2022/11/05 00:25:53;;;;;;;;;;;;;;;;;;354405;27;996;-65
2022/11/05 00:26:05;;;;;;;;;;;;;;;;;;354416;27;916;-65
2022/11/05 00:26:15;;;;;;;;;;;;;;;;;;354355;27;899;-65
2022/11/05 00:26:25;;;;;;;;;;;;;;;;;;354393;27;897;-65
2022/11/05 00:26:35;;;;;;;;;;;;;;;;;;354335;27;853;-65
2022/11/05 00:26:45;;;;;;;;;;;;;;;;;;353910;27;1791;-65
2022/11/05 00:26:56;;;;;;;;;;;;;;;;;;354403;27;1925;-65
2022/11/05 00:27:06;;;;;;;;;;;;;;;;;;355708;27;1075;-65
2022/11/05 00:27:16;;;;;;;;;;;;;;;;;;355743;27;1108;-65
2022/11/05 00:27:27;;;;;;;;;;;;;;;;;;355800;27;841;-65
2022/11/05 00:27:37;;;;;;;;;;;;;;;;;;355720;27;856;-65
2022/11/05 00:27:51;;;;;;;;;;;;;;;;;;355801;27;896;-65
2022/11/05 00:28:02;;;;;;;;;;;;;;;;;;355780;27;847;-65
2022/11/05 00:28:12;;;;;;;;;;;;;;;;;;355748;27;1036;-65
2022/11/05 00:28:22;;;;;;;;;;;;;;;;;;355742;27;832;-65
2022/11/05 00:28:33;;;;;;;;;;;;;;;;;;355783;27;916;-65
2022/11/05 00:28:43;;;;;;;;;;;;;;;;;;355746;27;975;-65
2022/11/05 00:28:54;;;;;;;;;;;;;;;;;;355731;27;915;-65
2022/11/05 00:29:04;;;;;;;;;;;;;;;;;;355793;27;995;-65
2022/11/05 00:29:14;;;;;;;;;;;;;;;;;;355826;27;813;-65
2022/11/05 00:29:24;;;;;;;;;;;;;;;;;;355779;27;880;-65
2022/11/05 00:29:35;;;;;;;;;;;;;;;;;;355771;27;987;-65
2022/11/05 00:29:45;;;;;;;;;;;;;;;;;;355809;27;983;-65
2022/11/05 00:29:55;;;;;;;;;;;;;;;;;;355703;27;928;-65
2022/11/05 00:30:06;;;;;;;;;;;;;;;;;;355763;27;1123;-65
2022/11/05 00:30:21;;;;;;;;;;;;;;;;;;355818;27;856;-65
2022/11/05 00:30:31;;;;;;;;;;;;;;;;;;355718;27;1033;-65
2022/11/05 00:30:41;;;;;;;;;;;;;;;;;;355717;27;762;-65
2022/11/05 00:30:52;;;;;;;;;;;;;;;;;;355688;27;964;-65
2022/11/05 00:31:08;;;;;;;;;;;;;;;;;;355750;27;928;-65
2022/11/05 00:31:18;;;;;;;;;;;;;;;;;;355655;27;1063;-65
2022/11/05 00:31:28;;;;;;;;;;;;;;;;;;355878;27;904;-65
2022/11/05 00:31:39;;;;;;;;;;;;;;;;;;355756;27;936;-65
2022/11/05 00:31:49;;;;;;;;;;;;;;;;;;355769;27;1086;-65
2022/11/05 00:31:59;;;;;;;;;;;;;;;;;;355786;27;868;-65
2022/11/05 00:32:09;;;;;;;;;;;;;;;;;;355722;27;1036;-65
2022/11/05 00:32:20;;;;;;;;;;;;;;;;;;355855;27;873;-65
2022/11/05 00:32:31;;;;;;;;;;;;;;;;;;355792;27;935;-65
2022/11/05 00:32:41;;;;;;;;;;;;;;;;;;355757;27;1007;-65
2022/11/05 00:32:51;;;;;;;;;;;;;;;;;;355660;27;1060;-65
2022/11/05 00:33:02;;;;;;;;;;;;;;;;;;355790;27;888;-65
2022/11/05 00:33:12;;;;;;;;;;;;;;;;;;355802;27;856;-65
2022/11/05 00:33:22;;;;;;;;;;;;;;;;;;355823;27;900;-65
2022/11/05 00:33:33;;;;;;;;;;;;;;;;;;355748;27;916;-65
2022/11/05 00:33:43;;;;;;;;;;;;;;;;;;355827;27;1015;-65
2022/11/05 00:33:53;;;;;;;;;;;;;;;;;;355813;27;908;-65
2022/11/05 00:34:03;;;;;;;;;;;;;;;;;;355758;27;999;-65
2022/11/05 00:34:13;;;;;;;;;;;;;;;;;;355772;27;1003;-65
2022/11/05 00:34:23;;;;;;;;;;;;;;;;;;355796;27;797;-65
2022/11/05 00:34:34;;;;;;;;;;;;;;;;;;355785;27;971;-65
2022/11/05 00:34:44;;;;;;;;;;;;;;;;;;355796;27;817;-65
2022/11/05 00:34:54;;;;;;;;;;;;;;;;;;355690;27;917;-65
2022/11/05 00:35:05;;;;;;;;;;;;;;;;;;355791;27;928;-65
2022/11/05 00:35:19;;;;;;;;;;;;;;;;;;355792;27;920;-65
2022/11/05 00:35:30;;;;;;;;;;;;;;;;;;355742;27;916;-65
2022/11/05 00:35:40;;;;;;;;;;;;;;;;;;355781;27;952;-65
2022/11/05 00:35:50;;;;;;;;;;;;;;;;;;355761;27;790;-65
2022/11/05 00:36:04;;;;;;;;;;;;;;;;;;355753;27;861;-65
2022/11/05 00:36:14;;;;;;;;;;;;;;;;;;355752;27;912;-65
2022/11/05 00:36:25;;;;;;;;;;;;;;;;;;355769;27;987;-65
2022/11/05 00:36:35;;;;;;;;;;;;;;;;;;355798;27;801;-65
2022/11/05 00:36:45;;;;;;;;;;;;;;;;;;355577;27;1572;-65
2022/11/05 00:36:55;;;;;;;;;;;;;;;;;;354863;27;1711;-65
2022/11/05 00:37:05;;;;;;;;;;;;;;;;;;355718;27;786;-65
2022/11/05 00:37:16;;;;;;;;;;;;;;;;;;355770;27;987;-65
2022/11/05 00:37:26;;;;;;;;;;;;;;;;;;355795;27;948;-65
2022/11/05 00:37:37;;;;;;;;;;;;;;;;;;355781;27;847;-65
2022/11/05 00:37:47;;;;;;;;;;;;;;;;;;355759;27;1226;-65
2022/11/05 00:37:57;;;;;;;;;;;;;;;;;;355797;27;983;-65
2022/11/05 00:38:07;;;;;;;;;;;;;;;;;;355769;27;781;-65
2022/11/05 00:38:17;;;;;;;;;;;;;;;;;;355722;27;916;-65
2022/11/05 00:38:28;;;;;;;;;;;;;;;;;;355806;27;936;-65
2022/11/05 00:38:38;;;;;;;;;;;;;;;;;;355776;27;928;-65
2022/11/05 00:38:48;;;;;;;;;;;;;;;;;;355216;27;1557;-65
2022/11/05 00:38:59;;;;;;;;;;;;;;;;;;355554;27;971;-65
2022/11/05 00:39:09;;;;;;;;;;;;;;;;;;355702;27;812;-65
2022/11/05 00:39:19;;;;;;;;;;;;;;;;;;355782;27;1014;-65
2022/11/05 00:39:29;;;;;;;;;;;;;;;;;;355771;27;964;-65
2022/11/05 00:39:39;;;;;;;;;;;;;;;;;;355748;27;908;-65
2022/11/05 00:39:50;;;;;;;;;;;;;;;;;;355755;27;987;-65
2022/11/05 00:40:00;;;;;;;;;;;;;;;;;;355723;27;833;-65
2022/11/05 00:40:11;;;;;;;;;;;;;;;;;;355777;27;979;-65
2022/11/05 00:40:21;;;;;;;;;;;;;;;;;;355745;27;920;-65
2022/11/05 00:40:32;;;;;;;;;;;;;;;;;;355768;27;916;-65
2022/11/05 00:40:43;;;;;;;;;;;;;;;;;;355750;27;1024;-65
2022/11/05 00:40:53;;;;;;;;;;;;;;;;;;354139;27;1609;-65
2022/11/05 00:41:03;;;;;;;;;;;;;;;;;;355741;27;964;-65
2022/11/05 00:41:13;;;;;;;;;;;;;;;;;;355664;27;1035;-65
2022/11/05 00:41:24;;;;;;;;;;;;;;;;;;355758;27;987;-65
2022/11/05 00:41:34;;;;;;;;;;;;;;;;;;355735;27;920;-65
2022/11/05 00:44:58;;;;;;;;;;;;;;;;;;355723;27;928;-65
2022/11/05 00:45:07;;;;;;;;;;;;;;;;;;354331;27;1179;-65
2022/11/05 00:45:17;;;;;;;;;;;;;;;;;;354220;27;944;-65
2022/11/05 00:45:28;;;;;;;;;;;;;;;;;;354343;27;1019;-65
2022/11/05 00:45:39;;;;;;;;;;;;;;;;;;354368;27;884;-65
2022/11/05 00:45:50;;;;;;;;;;;;;;;;;;354293;27;998;-65
2022/11/05 00:46:00;;;;;;;;;;;;;;;;;;354333;27;1163;-65
2022/11/05 00:46:10;;;;;;;;;;;;;;;;;;354383;27;837;-65
2022/11/05 00:46:22;;;;;;;;;;;;;;;;;;353747;27;2034;-65
2022/11/05 00:46:32;;;;;;;;;;;;;;;;;;354373;27;932;-65
2022/11/05 00:46:42;;;;;;;;;;;;;;;;;;354331;27;940;-65
2022/11/05 00:49:28;;;;;;;;;;;;;;;;;;353676;27;1972;-65
2022/11/05 00:49:29;;;;;;;;;;;;;;;;;;354322;27;809;-65
2022/11/05 00:49:40;;;;;;;;;;;;;;;;;;354289;27;880;-65
2022/11/05 00:49:50;;;;;;;;;;;;;;;;;;354356;27;935;-65
2022/11/05 00:50:00;;;;;;;;;;;;;;;;;;354323;27;964;-65
2022/11/05 00:50:10;;;;;;;;;;;;;;;;;;354363;27;845;-65
2022/11/05 00:50:21;;;;;;;;;;;;;;;;;;354359;27;928;-65
2022/11/05 00:50:31;;;;;;;;;;;;;;;;;;354321;27;984;-65
2022/11/05 00:50:41;;;;;;;;;;;;;;;;;;354338;27;955;-65
2022/11/05 00:50:52;;;;;;;;;;;;;;;;;;354373;27;928;-65
2022/11/05 00:51:02;;;;;;;;;;;;;;;;;;354364;27;908;-65
2022/11/05 00:51:12;;;;;;;;;;;;;;;;;;354367;27;865;-65
2022/11/05 00:51:22;;;;;;;;;;;;;;;;;;354308;27;975;-65
2022/11/05 00:51:32;;;;;;;;;;;;;;;;;;354295;27;936;-65
2022/11/05 00:51:43;;;;;;;;;;;;;;;;;;354370;27;956;-65
2022/11/05 00:52:54;;;;;;;;;;;;;;;;;;354363;27;908;-65
2022/11/05 00:52:56;;;;;;;;;;;;;;;;;;354338;27;991;-65
2022/11/05 00:53:06;;;;;;;;;;;;;;;;;;354332;27;2027;-65
2022/11/05 00:53:17;;;;;;;;;;;;;;;;;;354370;27;911;-65
2022/11/05 00:53:27;;;;;;;;;;;;;;;;;;354334;27;939;-65
2022/11/05 00:53:37;;;;;;;;;;;;;;;;;;354252;27;1262;-65
2022/11/05 00:53:47;;;;;;;;;;;;;;;;;;354279;27;837;-65
2022/11/05 00:53:57;;;;;;;;;;;;;;;;;;354380;27;845;-65
2022/11/05 00:54:08;;;;;;;;;;;;;;;;;;354341;27;920;-65
2022/11/05 00:54:18;;;;;;;;;;;;;;;;;;354330;27;972;-65
2022/11/05 00:54:28;;;;;;;;;;;;;;;;;;353615;27;1502;-65
2022/11/05 00:54:38;;;;;;;;;;;;;;;;;;355137;27;1521;-65
2022/11/05 00:54:48;;;;;;;;;;;;;;;;;;355761;27;916;-65
2022/11/05 00:54:59;;;;;;;;;;;;;;;;;;355777;27;960;-65
2022/11/05 00:55:09;;;;;;;;;;;;;;;;;;355758;27;1001;-65
2022/11/05 00:55:19;;;;;;;;;;;;;;;;;;355767;27;916;-65
2022/11/05 00:55:39;;;;;;;;;;;;;;;;;;355672;27;1229;-65
2022/11/05 00:55:50;;;;;;;;;;;;;;;;;;355687;27;952;-65
2022/11/05 00:56:00;;;;;;;;;;;;;;;;;;355740;27;920;-65
2022/11/05 00:56:11;;;;;;;;;;;;;;;;;;355798;27;797;-65
2022/11/05 00:56:21;;;;;;;;;;;;;;;;;;355789;27;852;-65
2022/11/05 00:56:31;;;;;;;;;;;;;;;;;;354035;27;1428;-65
2022/11/05 00:56:41;;;;;;;;;;;;;;;;;;354354;27;1010;-65
2022/11/05 00:56:51;;;;;;;;;;;;;;;;;;353887;27;1510;-65
2022/11/05 00:57:01;;;;;;;;;;;;;;;;;;354843;27;1326;-65
2022/11/05 00:57:12;;;;;;;;;;;;;;;;;;355755;27;914;-65
2022/11/05 00:57:22;;;;;;;;;;;;;;;;;;355735;27;928;-65
2022/11/05 00:57:32;;;;;;;;;;;;;;;;;;355729;27;1010;-65
2022/11/05 00:57:42;;;;;;;;;;;;;;;;;;355707;27;856;-65
2022/11/05 00:57:53;;;;;;;;;;;;;;;;;;355664;27;928;-65
2022/11/05 00:58:05;;;;;;;;;;;;;;;;;;355712;27;1002;-65
2022/11/05 00:58:16;;;;;;;;;;;;;;;;;;355746;27;1361;-65
2022/11/05 00:58:27;;;;;;;;;;;;;;;;;;355702;27;979;-65
2022/11/05 00:58:38;;;;;;;;;;;;;;;;;;355801;27;888;-65
2022/11/05 00:58:48;;;;;;;;;;;;;;;;;;355771;27;916;-65
2022/11/05 00:58:58;;;;;;;;;;;;;;;;;;355690;27;979;-65
2022/11/05 00:59:08;;;;;;;;;;;;;;;;;;355715;27;1055;-65
2022/11/05 00:59:18;;;;;;;;;;;;;;;;;;355750;27;848;-65
2022/11/05 00:59:29;;;;;;;;;;;;;;;;;;355739;27;923;-65
2022/11/05 00:59:39;;;;;;;;;;;;;;;;;;355691;27;1004;-65
2022/11/05 00:59:49;;;;;;;;;;;;;;;;;;355767;27;995;-65
2022/11/05 00:59:59;;;;;;;;;;;;;;;;;;355696;27;1484;-65
2022/11/05 01:00:10;;;;;;;;;;;;;;;;;;355751;27;1023;-65
2022/11/05 01:00:22;;;;;;;;;;;;;;;;;;355737;27;983;-65
2022/11/05 01:00:33;;;;;;;;;;;;;;;;;;355759;27;784;-65
2022/11/05 01:00:46;;;;;;;;;;;;;;;;;;355788;27;912;-65
2022/11/05 01:00:58;;;;;;;;;;;;;;;;;;355721;27;983;-65
2022/11/05 01:01:08;;;;;;;;;;;;;;;;;;355747;27;963;-65
2022/11/05 01:01:19;;;;;;;;;;;;;;;;;;355772;27;991;-65
2022/11/05 01:01:29;;;;;;;;;;;;;;;;;;355675;27;932;-65
2022/11/05 01:01:39;;;;;;;;;;;;;;;;;;355682;27;839;-65
2022/11/05 01:01:49;;;;;;;;;;;;;;;;;;355735;27;1015;-65
2022/11/05 01:01:59;;;;;;;;;;;;;;;;;;355699;27;983;-65
2022/11/05 01:02:09;;;;;;;;;;;;;;;;;;355657;27;860;-65
2022/11/05 01:02:20;;;;;;;;;;;;;;;;;;355799;27;841;-65
2022/11/05 01:02:30;;;;;;;;;;;;;;;;;;355734;27;960;-65
2022/11/05 01:02:40;;;;;;;;;;;;;;;;;;355689;27;1036;-65
2022/11/05 01:02:50;;;;;;;;;;;;;;;;;;355702;27;1832;-65
2022/11/05 01:03:02;;;;;;;;;;;;;;;;;;355766;27;971;-65
2022/11/05 01:03:15;;;;;;;;;;;;;;;;;;355780;27;932;-65
2022/11/05 01:03:26;;;;;;;;;;;;;;;;;;355649;27;1160;-65
2022/11/05 01:03:38;;;;;;;;;;;;;;;;;;355747;27;963;-65
2022/11/05 01:03:48;;;;;;;;;;;;;;;;;;355768;27;864;-65
2022/11/05 01:03:58;;;;;;;;;;;;;;;;;;355693;27;967;-65
2022/11/05 01:04:08;;;;;;;;;;;;;;;;;;355679;27;1022;-65
2022/11/05 01:04:19;;;;;;;;;;;;;;;;;;355746;27;991;-65
2022/11/05 01:04:29;;;;;;;;;;;;;;;;;;355784;27;959;-65
2022/11/05 01:04:39;;;;;;;;;;;;;;;;;;355696;27;928;-65
2022/11/05 01:04:49;;;;;;;;;;;;;;;;;;355730;27;1016;-65
2022/11/05 01:04:59;;;;;;;;;;;;;;;;;;355788;27;900;-65
2022/11/05 01:05:10;;;;;;;;;;;;;;;;;;355755;27;972;-65
2022/11/05 01:05:20;;;;;;;;;;;;;;;;;;355691;27;986;-65
2022/11/05 01:05:31;;;;;;;;;;;;;;;;;;355751;27;944;-65
2022/11/05 01:05:42;;;;;;;;;;;;;;;;;;355713;27;944;-65
2022/11/05 01:06:13;;;;;;;;;;;;;;;;;;355723;27;951;-65
2022/11/05 01:06:23;;;;;;;;;;;;;;;;;;355042;27;1141;-65
2022/11/05 01:06:33;;;;;;;;;;;;;;;;;;355730;27;944;-65
2022/11/05 01:06:43;;;;;;;;;;;;;;;;;;355743;27;849;-65
2022/11/05 01:06:53;;;;;;;;;;;;;;;;;;354416;27;1945;-65
2022/11/05 01:07:04;;;;;;;;;;;;;;;;;;354310;27;864;-65
2022/11/05 01:07:14;;;;;;;;;;;;;;;;;;354340;27;924;-65
2022/11/05 01:07:24;;;;;;;;;;;;;;;;;;354334;27;912;-65
2022/11/05 01:07:34;;;;;;;;;;;;;;;;;;354339;27;857;-65
2022/11/05 01:07:44;;;;;;;;;;;;;;;;;;354273;27;868;-65
2022/11/05 01:07:55;;;;;;;;;;;;;;;;;;354324;27;988;-65
2022/11/05 01:08:06;;;;;;;;;;;;;;;;;;354275;27;853;-65
2022/11/05 01:08:17;;;;;;;;;;;;;;;;;;354237;27;1855;-65
2022/11/05 01:08:27;;;;;;;;;;;;;;;;;;354271;27;987;-65
2022/11/05 01:08:38;;;;;;;;;;;;;;;;;;354333;27;928;-65
2022/11/05 01:08:48;;;;;;;;;;;;;;;;;;354301;27;912;-65
2022/11/05 01:08:58;;;;;;;;;;;;;;;;;;354330;27;908;-65
2022/11/05 01:09:08;;;;;;;;;;;;;;;;;;354288;27;928;-65
2022/11/05 01:09:19;;;;;;;;;;;;;;;;;;354315;27;1011;-65
2022/11/05 01:09:29;;;;;;;;;;;;;;;;;;354325;27;931;-65
2022/11/05 01:09:39;;;;;;;;;;;;;;;;;;354289;27;1063;-65
2022/11/05 01:09:49;;;;;;;;;;;;;;;;;;354286;27;847;-65
2022/11/05 01:09:59;;;;;;;;;;;;;;;;;;354314;27;936;-64
2022/11/05 01:10:09;;;;;;;;;;;;;;;;;;354124;27;999;-65
2022/11/05 01:10:20;;;;;;;;;;;;;;;;;;354247;27;1011;-65
2022/11/05 01:10:30;;;;;;;;;;;;;;;;;;354307;27;1092;-65
2022/11/05 01:10:42;;;;;;;;;;;;;;;;;;354337;27;1058;-65
2022/11/05 01:10:54;;;;;;;;;;;;;;;;;;354323;27;1010;-65
2022/11/05 01:11:09;;;;;;;;;;;;;;;;;;354337;27;852;-65
2022/11/05 01:11:35;;;;;;;;;;;;;;;;;;354280;27;907;-65
2022/11/05 01:11:46;;;;;;;;;;;;;;;;;;354296;27;979;-65
2022/11/05 01:11:56;;;;;;;;;;;;;;;;;;354284;27;840;-65
2022/11/05 01:12:06;;;;;;;;;;;;;;;;;;354342;27;852;-65
2022/11/05 01:12:16;;;;;;;;;;;;;;;;;;354313;27;920;-65
2022/11/05 01:12:26;;;;;;;;;;;;;;;;;;354216;27;947;-65
2022/11/05 01:12:36;;;;;;;;;;;;;;;;;;354275;27;1047;-65
2022/11/05 01:12:47;;;;;;;;;;;;;;;;;;354303;27;899;-65
2022/11/05 01:12:57;;;;;;;;;;;;;;;;;;354343;27;1006;-65
2022/11/05 01:13:08;;;;;;;;;;;;;;;;;;354363;27;784;-65
2022/11/05 01:13:19;;;;;;;;;;;;;;;;;;354235;27;1011;-65
2022/11/05 01:13:30;;;;;;;;;;;;;;;;;;354308;27;916;-65
2022/11/05 01:13:40;;;;;;;;;;;;;;;;;;354294;27;900;-65
2022/11/05 01:13:50;;;;;;;;;;;;;;;;;;354356;27;1022;-65
2022/11/05 01:14:01;;;;;;;;;;;;;;;;;;354286;27;909;-65
2022/11/05 01:14:12;;;;;;;;;;;;;;;;;;353852;27;1987;-65
2022/11/05 01:14:23;;;;;;;;;;;;;;;;;;355506;27;970;-65
2022/11/05 01:14:33;;;;;;;;;;;;;;;;;;355666;27;978;-65
2022/11/05 01:14:43;;;;;;;;;;;;;;;;;;355642;27;1270;-65
2022/11/05 01:14:53;;;;;;;;;;;;;;;;;;355686;27;994;-65
2022/11/05 01:15:04;;;;;;;;;;;;;;;;;;354676;27;1419;-65
2022/11/05 01:15:14;;;;;;;;;;;;;;;;;;355324;27;1675;-65
2022/11/05 01:15:25;;;;;;;;;;;;;;;;;;355718;27;892;-65
2022/11/05 01:15:35;;;;;;;;;;;;;;;;;;355746;27;900;-64
2022/11/05 01:15:46;;;;;;;;;;;;;;;;;;355784;27;918;-65
2022/11/05 01:15:56;;;;;;;;;;;;;;;;;;355724;27;860;-65
2022/11/05 01:16:07;;;;;;;;;;;;;;;;;;355676;27;935;-65
2022/11/05 01:16:17;;;;;;;;;;;;;;;;;;355736;27;919;-65
2022/11/05 01:16:28;;;;;;;;;;;;;;;;;;355724;27;920;-65
2022/11/05 01:16:38;;;;;;;;;;;;;;;;;;355717;27;849;-65
2022/11/05 01:16:48;;;;;;;;;;;;;;;;;;355716;27;943;-65
2022/11/05 01:16:59;;;;;;;;;;;;;;;;;;354079;27;1735;-65
2022/11/05 01:17:09;;;;;;;;;;;;;;;;;;354331;27;990;-65
2022/11/05 01:17:19;;;;;;;;;;;;;;;;;;354319;27;792;-65
2022/11/05 01:17:29;;;;;;;;;;;;;;;;;;354282;27;915;-65
2022/11/05 01:17:39;;;;;;;;;;;;;;;;;;354266;27;963;-65
2022/11/05 01:17:50;;;;;;;;;;;;;;;;;;354305;27;860;-65
2022/11/05 01:18:00;;;;;;;;;;;;;;;;;;354267;27;1018;-65
2022/11/05 01:18:11;;;;;;;;;;;;;;;;;;353706;27;1392;-65
2022/11/05 01:18:22;;;;;;;;;;;;;;;;;;354304;27;954;-65
2022/11/05 01:18:32;;;;;;;;;;;;;;;;;;354256;27;1080;-65
2022/11/05 01:18:42;;;;;;;;;;;;;;;;;;354248;27;1018;-65
2022/11/05 01:18:52;;;;;;;;;;;;;;;;;;354237;27;1397;-65
2022/11/05 01:19:04;;;;;;;;;;;;;;;;;;354296;27;986;-65
2022/11/05 01:19:14;;;;;;;;;;;;;;;;;;354336;27;778;-65
2022/11/05 01:19:24;;;;;;;;;;;;;;;;;;354343;27;924;-65
2022/11/05 01:19:35;;;;;;;;;;;;;;;;;;354545;27;1354;-65
2022/11/05 01:19:45;;;;;;;;;;;;;;;;;;355764;27;1038;-65
2022/11/05 01:19:55;;;;;;;;;;;;;;;;;;355715;27;780;-65
2022/11/05 01:20:05;;;;;;;;;;;;;;;;;;355693;27;939;-65
2022/11/05 01:20:15;;;;;;;;;;;;;;;;;;355761;27;860;-65
2022/11/05 01:20:26;;;;;;;;;;;;;;;;;;355729;27;967;-65
2022/11/05 01:20:36;;;;;;;;;;;;;;;;;;355679;27;847;-65
2022/11/05 01:20:46;;;;;;;;;;;;;;;;;;355666;27;912;-65
2022/11/05 01:20:56;;;;;;;;;;;;;;;;;;355704;27;935;-65
2022/11/05 01:21:11;;;;;;;;;;;;;;;;;;355650;27;967;-65
2022/11/05 01:21:21;;;;;;;;;;;;;;;;;;355820;27;770;-65
2022/11/05 01:21:31;;;;;;;;;;;;;;;;;;355737;27;912;-65
2022/11/05 01:21:42;;;;;;;;;;;;;;;;;;355707;27;821;-65
2022/11/05 01:21:52;;;;;;;;;;;;;;;;;;355575;27;1162;-66
2022/11/05 01:22:02;;;;;;;;;;;;;;;;;;355699;27;940;-65
2022/11/05 01:22:12;;;;;;;;;;;;;;;;;;355669;27;951;-65
2022/11/05 01:22:22;;;;;;;;;;;;;;;;;;355742;27;904;-65
2022/11/05 01:22:33;;;;;;;;;;;;;;;;;;355754;27;919;-65
2022/11/05 01:22:43;;;;;;;;;;;;;;;;;;355726;27;836;-65
2022/11/05 01:22:53;;;;;;;;;;;;;;;;;;355614;27;1003;-65
2022/11/05 01:23:03;;;;;;;;;;;;;;;;;;355709;27;936;-65
2022/11/05 01:23:14;;;;;;;;;;;;;;;;;;355747;27;793;-65
2022/11/05 01:23:24;;;;;;;;;;;;;;;;;;355732;27;904;-65
2022/11/05 01:23:34;;;;;;;;;;;;;;;;;;355679;27;894;-65
2022/11/05 01:23:44;;;;;;;;;;;;;;;;;;355712;27;907;-65
2022/11/05 01:23:55;;;;;;;;;;;;;;;;;;355707;27;936;-65
2022/11/05 01:24:05;;;;;;;;;;;;;;;;;;354908;27;1552;-65
2022/11/05 01:24:15;;;;;;;;;;;;;;;;;;355709;27;912;-64
2022/11/05 01:24:25;;;;;;;;;;;;;;;;;;355726;27;955;-65
2022/11/05 01:24:36;;;;;;;;;;;;;;;;;;355794;27;875;-65
2022/11/05 01:24:46;;;;;;;;;;;;;;;;;;355713;27;967;-65
2022/11/05 01:24:56;;;;;;;;;;;;;;;;;;355640;27;801;-65
2022/11/05 01:25:06;;;;;;;;;;;;;;;;;;355687;27;912;-65
2022/11/05 01:25:17;;;;;;;;;;;;;;;;;;355692;27;939;-65
2022/11/05 01:25:27;;;;;;;;;;;;;;;;;;355748;27;899;-65
2022/11/05 01:25:37;;;;;;;;;;;;;;;;;;355684;27;975;-65
2022/11/05 01:25:47;;;;;;;;;;;;;;;;;;355733;27;856;-65
2022/11/05 01:25:57;;;;;;;;;;;;;;;;;;355718;27;986;-65
2022/11/05 01:26:08;;;;;;;;;;;;;;;;;;355689;27;928;-65
2022/11/05 01:26:18;;;;;;;;;;;;;;;;;;355618;27;912;-65
2022/11/05 01:26:28;;;;;;;;;;;;;;;;;;355708;27;844;-65
2022/11/05 01:26:38;;;;;;;;;;;;;;;;;;355747;27;805;-65
2022/11/05 01:26:48;;;;;;;;;;;;;;;;;;355810;27;958;-65
2022/11/05 01:26:59;;;;;;;;;;;;;;;;;;354007;27;1913;-65
2022/11/05 01:27:09;;;;;;;;;;;;;;;;;;354305;27;769;-65
2022/11/05 01:27:19;;;;;;;;;;;;;;;;;;354288;27;982;-65
2022/11/05 01:27:29;;;;;;;;;;;;;;;;;;354330;27;1002;-65
2022/11/05 01:27:39;;;;;;;;;;;;;;;;;;354316;27;837;-65
2022/11/05 01:27:50;;;;;;;;;;;;;;;;;;354236;27;924;-65
2022/11/05 01:28:00;;;;;;;;;;;;;;;;;;354330;27;879;-65
2022/11/05 01:28:11;;;;;;;;;;;;;;;;;;354286;27;1095;-65
2022/11/05 01:28:21;;;;;;;;;;;;;;;;;;354317;27;1114;-65
2022/11/05 01:28:31;;;;;;;;;;;;;;;;;;354255;27;812;-65
2022/11/05 01:28:41;;;;;;;;;;;;;;;;;;354289;27;932;-65
2022/11/05 01:28:52;;;;;;;;;;;;;;;;;;354313;27;920;-65
2022/11/05 01:29:02;;;;;;;;;;;;;;;;;;354307;27;860;-65
2022/11/05 01:29:12;;;;;;;;;;;;;;;;;;354220;27;1606;-65
2022/11/05 01:29:22;;;;;;;;;;;;;;;;;;354315;27;844;-65
2022/11/05 01:29:32;;;;;;;;;;;;;;;;;;354287;27;800;-65
2022/11/05 01:29:43;;;;;;;;;;;;;;;;;;354296;27;777;-65
2022/11/05 01:29:53;;;;;;;;;;;;;;;;;;354322;27;975;-65
2022/11/05 01:30:04;;;;;;;;;;;;;;;;;;354285;27;932;-65
2022/11/05 01:30:15;;;;;;;;;;;;;;;;;;354295;27;916;-65
2022/11/05 01:30:25;;;;;;;;;;;;;;;;;;354224;27;971;-65
2022/11/05 01:30:35;;;;;;;;;;;;;;;;;;354306;27;829;-65
2022/11/05 01:30:53;;;;;;;;;;;;;;;;;;354271;27;995;-65
2022/11/05 01:31:03;;;;;;;;;;;;;;;;;;354341;27;896;-65
2022/11/05 01:31:13;;;;;;;;;;;;;;;;;;354214;27;845;-65
2022/11/05 01:31:24;;;;;;;;;;;;;;;;;;354294;27;944;-65
2022/11/05 01:31:34;;;;;;;;;;;;;;;;;;354301;27;936;-65
2022/11/05 01:31:44;;;;;;;;;;;;;;;;;;354282;27;951;-65
2022/11/05 01:31:54;;;;;;;;;;;;;;;;;;354268;27;951;-65
2022/11/05 01:32:04;;;;;;;;;;;;;;;;;;354243;27;975;-65
2022/11/05 01:32:15;;;;;;;;;;;;;;;;;;354251;27;936;-65
2022/11/05 01:32:25;;;;;;;;;;;;;;;;;;354259;27;777;-65
2022/11/05 01:32:35;;;;;;;;;;;;;;;;;;354303;27;928;-65
2022/11/05 01:32:45;;;;;;;;;;;;;;;;;;354301;27;932;-65
2022/11/05 01:32:56;;;;;;;;;;;;;;;;;;354252;27;912;-65
2022/11/05 01:33:06;;;;;;;;;;;;;;;;;;354299;27;986;-65
2022/11/05 01:33:16;;;;;;;;;;;;;;;;;;354160;27;1007;-65
2022/11/05 01:33:27;;;;;;;;;;;;;;;;;;354228;27;935;-65
2022/11/05 01:33:37;;;;;;;;;;;;;;;;;;354295;27;888;-65
2022/11/05 01:33:47;;;;;;;;;;;;;;;;;;354298;27;975;-65
2022/11/05 01:33:59;;;;;;;;;;;;;;;;;;354260;27;919;-65
2022/11/05 01:34:09;;;;;;;;;;;;;;;;;;354283;27;947;-65
2022/11/05 01:34:19;;;;;;;;;;;;;;;;;;354275;27;916;-65
2022/11/05 01:34:30;;;;;;;;;;;;;;;;;;354264;27;849;-65
2022/11/05 01:34:40;;;;;;;;;;;;;;;;;;354298;27;982;-65
2022/11/05 01:34:50;;;;;;;;;;;;;;;;;;354365;27;778;-65
2022/11/05 01:35:00;;;;;;;;;;;;;;;;;;354031;27;1003;-65
2022/11/05 01:35:13;;;;;;;;;;;;;;;;;;354286;27;943;-65
2022/11/05 01:35:23;;;;;;;;;;;;;;;;;;354253;27;845;-65
2022/11/05 01:35:33;;;;;;;;;;;;;;;;;;354246;27;911;-65
2022/11/05 01:35:44;;;;;;;;;;;;;;;;;;354296;27;981;-65
2022/11/05 01:35:54;;;;;;;;;;;;;;;;;;354277;27;919;-65
2022/11/05 01:36:04;;;;;;;;;;;;;;;;;;354258;27;825;-65
2022/11/05 01:36:14;;;;;;;;;;;;;;;;;;354214;27;932;-65
2022/11/05 01:36:25;;;;;;;;;;;;;;;;;;354292;27;924;-65
2022/11/05 01:36:35;;;;;;;;;;;;;;;;;;354267;27;880;-65
2022/11/05 01:36:45;;;;;;;;;;;;;;;;;;354289;27;975;-65
2022/11/05 01:36:55;;;;;;;;;;;;;;;;;;353872;27;1851;-65
2022/11/05 01:37:05;;;;;;;;;;;;;;;;;;355240;27;1284;-65
2022/11/05 01:37:16;;;;;;;;;;;;;;;;;;355625;27;1007;-65
2022/11/05 01:37:26;;;;;;;;;;;;;;;;;;355622;27;1021;-65
2022/11/05 01:37:36;;;;;;;;;;;;;;;;;;355660;27;920;-65
2022/11/05 01:37:47;;;;;;;;;;;;;;;;;;355700;27;939;-65
2022/11/05 01:37:57;;;;;;;;;;;;;;;;;;355719;27;982;-65
2022/11/05 01:38:07;;;;;;;;;;;;;;;;;;355620;27;1075;-65
2022/11/05 01:38:18;;;;;;;;;;;;;;;;;;355698;27;911;-65
2022/11/05 01:38:28;;;;;;;;;;;;;;;;;;355723;27;920;-65
2022/11/05 01:38:38;;;;;;;;;;;;;;;;;;355650;27;983;-65
2022/11/05 01:38:48;;;;;;;;;;;;;;;;;;355708;27;860;-65
2022/11/05 01:38:58;;;;;;;;;;;;;;;;;;355711;27;964;-65
2022/11/05 01:39:08;;;;;;;;;;;;;;;;;;355650;27;773;-65
2022/11/05 01:39:19;;;;;;;;;;;;;;;;;;355691;27;974;-65
2022/11/05 01:39:29;;;;;;;;;;;;;;;;;;355620;27;975;-65
2022/11/05 01:39:39;;;;;;;;;;;;;;;;;;355673;27;910;-65
2022/11/05 01:39:49;;;;;;;;;;;;;;;;;;355709;27;864;-65
2022/11/05 01:39:59;;;;;;;;;;;;;;;;;;355700;27;928;-65
2022/11/05 01:40:11;;;;;;;;;;;;;;;;;;355613;27;788;-65
2022/11/05 01:40:22;;;;;;;;;;;;;;;;;;355673;27;826;-65
2022/11/05 01:40:32;;;;;;;;;;;;;;;;;;355716;27;963;-65
2022/11/05 01:40:43;;;;;;;;;;;;;;;;;;355676;27;932;-65
2022/11/05 01:40:53;;;;;;;;;;;;;;;;;;355697;27;919;-65
2022/11/05 01:41:04;;;;;;;;;;;;;;;;;;355747;27;1002;-65
2022/11/05 01:41:14;;;;;;;;;;;;;;;;;;355650;27;990;-65